sensor_id;sensor_type;location;lat;lon;timestamp;P1;durP1;ratioP1;P2;durP2;ratioP2
56455;SDS011;42354;53.218;6.564;2022-08-19T00:00:35;16.90;;;9.75;;
56455;SDS011;42354;53.218;6.564;2022-08-19T00:03:01;18.40;;;10.57;;
56455;SDS011;42354;53.218;6.564;2022-08-19T00:05:27;19.98;;;13.02;;
56455;SDS011;42354;53.218;6.564;2022-08-19T00:07:53;20.58;;;12.20;;
56455;SDS011;42354;53.218;6.564;2022-08-19T00:10:19;21.40;;;12.75;;
56455;SDS011;42354;53.218;6.564;2022-08-19T00:12:45;24.00;;;12.85;;
56455;SDS011;42354;53.218;6.564;2022-08-19T00:15:12;20.90;;;11.85;;
56455;SDS011;42354;53.218;6.564;2022-08-19T00:17:40;21.42;;;11.88;;
56455;SDS011;42354;53.218;6.564;2022-08-19T00:20:08;19.92;;;11.43;;
56455;SDS011;42354;53.218;6.564;2022-08-19T00:22:35;17.00;;;10.02;;
56455;SDS011;42354;53.218;6.564;2022-08-19T00:25:02;18.80;;;9.68;;
56455;SDS011;42354;53.218;6.564;2022-08-19T00:27:27;13.75;;;8.77;;
56455;SDS011;42354;53.218;6.564;2022-08-19T00:29:53;17.92;;;9.07;;
56455;SDS011;42354;53.218;6.564;2022-08-19T00:32:19;15.50;;;8.43;;
56455;SDS011;42354;53.218;6.564;2022-08-19T00:34:46;18.73;;;9.38;;
56455;SDS011;42354;53.218;6.564;2022-08-19T00:37:11;20.70;;;10.77;;
56455;SDS011;42354;53.218;6.564;2022-08-19T00:39:37;15.80;;;9.70;;
56455;SDS011;42354;53.218;6.564;2022-08-19T00:42:03;14.13;;;9.73;;
56455;SDS011;42354;53.218;6.564;2022-08-19T00:44:28;17.75;;;9.40;;
56455;SDS011;42354;53.218;6.564;2022-08-19T00:46:55;14.68;;;9.57;;
56455;SDS011;42354;53.218;6.564;2022-08-19T00:49:29;20.60;;;10.48;;
56455;SDS011;42354;53.218;6.564;2022-08-19T00:51:58;17.27;;;9.93;;
56455;SDS011;42354;53.218;6.564;2022-08-19T00:54:28;14.60;;;9.70;;
56455;SDS011;42354;53.218;6.564;2022-08-19T00:56:56;17.30;;;10.27;;
56455;SDS011;42354;53.218;6.564;2022-08-19T00:59:22;22.42;;;10.25;;
56455;SDS011;42354;53.218;6.564;2022-08-19T01:01:48;20.05;;;11.35;;
56455;SDS011;42354;53.218;6.564;2022-08-19T01:04:14;17.23;;;10.35;;
56455;SDS011;42354;53.218;6.564;2022-08-19T01:06:39;18.65;;;11.52;;
56455;SDS011;42354;53.218;6.564;2022-08-19T01:09:06;18.92;;;11.82;;
56455;SDS011;42354;53.218;6.564;2022-08-19T01:11:33;23.08;;;11.82;;
56455;SDS011;42354;53.218;6.564;2022-08-19T01:14:01;20.58;;;12.48;;
56455;SDS011;42354;53.218;6.564;2022-08-19T01:16:27;20.38;;;12.68;;
56455;SDS011;42354;53.218;6.564;2022-08-19T01:18:55;19.63;;;12.77;;
56455;SDS011;42354;53.218;6.564;2022-08-19T01:21:43;22.42;;;12.75;;
56455;SDS011;42354;53.218;6.564;2022-08-19T01:24:12;23.45;;;12.88;;
56455;SDS011;42354;53.218;6.564;2022-08-19T01:26:38;23.00;;;13.50;;
56455;SDS011;42354;53.218;6.564;2022-08-19T01:29:07;24.95;;;14.35;;
56455;SDS011;42354;53.218;6.564;2022-08-19T01:31:35;26.77;;;14.68;;
56455;SDS011;42354;53.218;6.564;2022-08-19T01:34:02;27.23;;;15.77;;
56455;SDS011;42354;53.218;6.564;2022-08-19T01:36:30;32.88;;;17.73;;
56455;SDS011;42354;53.218;6.564;2022-08-19T01:39:02;25.38;;;14.25;;
56455;SDS011;42354;53.218;6.564;2022-08-19T01:41:31;23.55;;;13.75;;
56455;SDS011;42354;53.218;6.564;2022-08-19T01:43:58;26.02;;;14.40;;
56455;SDS011;42354;53.218;6.564;2022-08-19T01:46:24;25.75;;;13.95;;
56455;SDS011;42354;53.218;6.564;2022-08-19T01:48:49;21.63;;;13.07;;
56455;SDS011;42354;53.218;6.564;2022-08-19T01:51:15;25.85;;;13.10;;
56455;SDS011;42354;53.218;6.564;2022-08-19T01:53:41;25.90;;;13.18;;
56455;SDS011;42354;53.218;6.564;2022-08-19T01:56:08;29.20;;;14.90;;
56455;SDS011;42354;53.218;6.564;2022-08-19T01:58:35;25.17;;;12.68;;
56455;SDS011;42354;53.218;6.564;2022-08-19T02:01:03;20.67;;;11.10;;
56455;SDS011;42354;53.218;6.564;2022-08-19T02:03:31;21.60;;;11.23;;
56455;SDS011;42354;53.218;6.564;2022-08-19T02:05:57;23.27;;;11.93;;
56455;SDS011;42354;53.218;6.564;2022-08-19T02:08:28;23.02;;;11.93;;
56455;SDS011;42354;53.218;6.564;2022-08-19T02:10:59;21.27;;;11.45;;
56455;SDS011;42354;53.218;6.564;2022-08-19T02:13:25;23.88;;;12.15;;
56455;SDS011;42354;53.218;6.564;2022-08-19T02:15:51;22.38;;;11.55;;
56455;SDS011;42354;53.218;6.564;2022-08-19T02:18:16;23.00;;;12.35;;
56455;SDS011;42354;53.218;6.564;2022-08-19T02:20:42;19.80;;;12.40;;
56455;SDS011;42354;53.218;6.564;2022-08-19T02:23:09;19.55;;;11.38;;
56455;SDS011;42354;53.218;6.564;2022-08-19T02:25:37;19.75;;;12.02;;
56455;SDS011;42354;53.218;6.564;2022-08-19T02:28:03;18.85;;;10.93;;
56455;SDS011;42354;53.218;6.564;2022-08-19T02:30:29;19.00;;;10.93;;
56455;SDS011;42354;53.218;6.564;2022-08-19T02:32:56;20.92;;;11.10;;
56455;SDS011;42354;53.218;6.564;2022-08-19T02:35:21;21.45;;;11.20;;
56455;SDS011;42354;53.218;6.564;2022-08-19T02:37:47;22.50;;;10.95;;
56455;SDS011;42354;53.218;6.564;2022-08-19T02:40:32;17.83;;;10.07;;
56455;SDS011;42354;53.218;6.564;2022-08-19T02:42:59;16.92;;;9.75;;
56455;SDS011;42354;53.218;6.564;2022-08-19T02:45:26;17.25;;;9.80;;
56455;SDS011;42354;53.218;6.564;2022-08-19T02:47:51;18.08;;;9.70;;
56455;SDS011;42354;53.218;6.564;2022-08-19T02:50:17;13.98;;;8.68;;
56455;SDS011;42354;53.218;6.564;2022-08-19T02:52:43;16.88;;;10.27;;
56455;SDS011;42354;53.218;6.564;2022-08-19T02:55:09;14.77;;;9.70;;
56455;SDS011;42354;53.218;6.564;2022-08-19T02:57:34;15.48;;;10.32;;
56455;SDS011;42354;53.218;6.564;2022-08-19T03:00:00;19.77;;;11.10;;
56455;SDS011;42354;53.218;6.564;2022-08-19T03:02:26;17.08;;;10.25;;
56455;SDS011;42354;53.218;6.564;2022-08-19T03:04:52;17.33;;;11.00;;
56455;SDS011;42354;53.218;6.564;2022-08-19T03:07:17;18.75;;;10.65;;
56455;SDS011;42354;53.218;6.564;2022-08-19T03:09:43;18.42;;;9.85;;
56455;SDS011;42354;53.218;6.564;2022-08-19T03:12:09;20.50;;;10.27;;
56455;SDS011;42354;53.218;6.564;2022-08-19T03:14:35;15.07;;;9.02;;
56455;SDS011;42354;53.218;6.564;2022-08-19T03:17:01;20.73;;;10.57;;
56455;SDS011;42354;53.218;6.564;2022-08-19T03:19:30;21.85;;;11.07;;
56455;SDS011;42354;53.218;6.564;2022-08-19T03:21:56;16.35;;;10.15;;
56455;SDS011;42354;53.218;6.564;2022-08-19T03:24:22;15.10;;;9.18;;
56455;SDS011;42354;53.218;6.564;2022-08-19T03:26:49;18.73;;;9.98;;
56455;SDS011;42354;53.218;6.564;2022-08-19T03:29:17;17.17;;;10.57;;
56455;SDS011;42354;53.218;6.564;2022-08-19T03:31:43;20.83;;;10.70;;
56455;SDS011;42354;53.218;6.564;2022-08-19T03:34:10;19.85;;;11.25;;
56455;SDS011;42354;53.218;6.564;2022-08-19T03:36:42;21.73;;;11.43;;
56455;SDS011;42354;53.218;6.564;2022-08-19T03:39:09;19.40;;;11.23;;
56455;SDS011;42354;53.218;6.564;2022-08-19T03:41:36;20.48;;;11.18;;
56455;SDS011;42354;53.218;6.564;2022-08-19T03:44:03;21.05;;;10.40;;
56455;SDS011;42354;53.218;6.564;2022-08-19T03:46:30;19.10;;;10.52;;
56455;SDS011;42354;53.218;6.564;2022-08-19T03:48:57;23.77;;;11.48;;
56455;SDS011;42354;53.218;6.564;2022-08-19T03:51:29;19.63;;;11.13;;
56455;SDS011;42354;53.218;6.564;2022-08-19T03:53:56;19.23;;;10.73;;
56455;SDS011;42354;53.218;6.564;2022-08-19T03:56:23;21.98;;;11.15;;
56455;SDS011;42354;53.218;6.564;2022-08-19T03:58:50;17.70;;;11.05;;
56455;SDS011;42354;53.218;6.564;2022-08-19T04:01:18;22.23;;;11.73;;
56455;SDS011;42354;53.218;6.564;2022-08-19T04:03:46;24.20;;;11.70;;
56455;SDS011;42354;53.218;6.564;2022-08-19T04:06:12;25.23;;;11.70;;
56455;SDS011;42354;53.218;6.564;2022-08-19T04:08:40;22.73;;;11.18;;
56455;SDS011;42354;53.218;6.564;2022-08-19T04:11:07;24.60;;;12.30;;
56455;SDS011;42354;53.218;6.564;2022-08-19T04:13:34;23.83;;;11.70;;
56455;SDS011;42354;53.218;6.564;2022-08-19T04:15:59;22.33;;;11.63;;
56455;SDS011;42354;53.218;6.564;2022-08-19T04:18:25;21.33;;;10.98;;
56455;SDS011;42354;53.218;6.564;2022-08-19T04:20:50;21.25;;;12.07;;
56455;SDS011;42354;53.218;6.564;2022-08-19T04:23:17;21.42;;;11.23;;
56455;SDS011;42354;53.218;6.564;2022-08-19T04:25:43;25.13;;;12.05;;
56455;SDS011;42354;53.218;6.564;2022-08-19T04:28:10;24.45;;;11.48;;
56455;SDS011;42354;53.218;6.564;2022-08-19T04:30:41;23.85;;;12.38;;
56455;SDS011;42354;53.218;6.564;2022-08-19T04:33:13;21.58;;;11.02;;
56455;SDS011;42354;53.218;6.564;2022-08-19T04:35:42;18.92;;;11.15;;
56455;SDS011;42354;53.218;6.564;2022-08-19T04:38:09;25.08;;;11.45;;
56455;SDS011;42354;53.218;6.564;2022-08-19T04:40:42;21.23;;;11.35;;
56455;SDS011;42354;53.218;6.564;2022-08-19T04:43:29;19.33;;;10.82;;
56455;SDS011;42354;53.218;6.564;2022-08-19T04:45:55;21.73;;;11.82;;
56455;SDS011;42354;53.218;6.564;2022-08-19T04:48:20;20.30;;;11.05;;
56455;SDS011;42354;53.218;6.564;2022-08-19T04:50:54;22.27;;;11.70;;
56455;SDS011;42354;53.218;6.564;2022-08-19T04:53:27;22.42;;;11.80;;
56455;SDS011;42354;53.218;6.564;2022-08-19T04:55:55;23.23;;;11.95;;
56455;SDS011;42354;53.218;6.564;2022-08-19T04:58:23;22.27;;;11.85;;
56455;SDS011;42354;53.218;6.564;2022-08-19T05:00:51;21.38;;;11.45;;
56455;SDS011;42354;53.218;6.564;2022-08-19T05:03:16;23.88;;;11.32;;
56455;SDS011;42354;53.218;6.564;2022-08-19T05:05:42;22.67;;;12.35;;
56455;SDS011;42354;53.218;6.564;2022-08-19T05:08:09;20.50;;;11.35;;
56455;SDS011;42354;53.218;6.564;2022-08-19T05:10:36;19.15;;;11.50;;
56455;SDS011;42354;53.218;6.564;2022-08-19T05:13:04;20.58;;;11.82;;
56455;SDS011;42354;53.218;6.564;2022-08-19T05:15:30;20.30;;;11.15;;
56455;SDS011;42354;53.218;6.564;2022-08-19T05:17:56;25.17;;;12.65;;
56455;SDS011;42354;53.218;6.564;2022-08-19T05:20:39;22.17;;;11.75;;
56455;SDS011;42354;53.218;6.564;2022-08-19T05:23:23;23.38;;;13.00;;
56455;SDS011;42354;53.218;6.564;2022-08-19T05:25:49;24.15;;;13.43;;
56455;SDS011;42354;53.218;6.564;2022-08-19T05:28:15;25.38;;;13.52;;
56455;SDS011;42354;53.218;6.564;2022-08-19T05:30:41;28.60;;;14.48;;
56455;SDS011;42354;53.218;6.564;2022-08-19T05:33:08;24.52;;;13.75;;
56455;SDS011;42354;53.218;6.564;2022-08-19T05:35:35;27.92;;;14.10;;
56455;SDS011;42354;53.218;6.564;2022-08-19T05:38:02;23.30;;;13.63;;
56455;SDS011;42354;53.218;6.564;2022-08-19T05:40:27;27.08;;;13.60;;
56455;SDS011;42354;53.218;6.564;2022-08-19T05:42:53;24.00;;;13.80;;
56455;SDS011;42354;53.218;6.564;2022-08-19T05:45:19;23.83;;;13.10;;
56455;SDS011;42354;53.218;6.564;2022-08-19T05:47:45;21.92;;;13.25;;
56455;SDS011;42354;53.218;6.564;2022-08-19T05:50:11;24.23;;;13.70;;
56455;SDS011;42354;53.218;6.564;2022-08-19T05:52:37;21.42;;;13.32;;
56455;SDS011;42354;53.218;6.564;2022-08-19T05:55:03;27.23;;;15.45;;
56455;SDS011;42354;53.218;6.564;2022-08-19T05:57:29;22.90;;;13.70;;
56455;SDS011;42354;53.218;6.564;2022-08-19T05:59:55;21.08;;;12.55;;
56455;SDS011;42354;53.218;6.564;2022-08-19T06:02:22;19.92;;;12.57;;
56455;SDS011;42354;53.218;6.564;2022-08-19T06:04:47;20.85;;;12.65;;
56455;SDS011;42354;53.218;6.564;2022-08-19T06:07:14;20.05;;;12.02;;
56455;SDS011;42354;53.218;6.564;2022-08-19T06:09:40;18.67;;;11.85;;
56455;SDS011;42354;53.218;6.564;2022-08-19T06:12:06;20.02;;;11.85;;
56455;SDS011;42354;53.218;6.564;2022-08-19T06:14:33;16.27;;;10.82;;
56455;SDS011;42354;53.218;6.564;2022-08-19T06:17:00;19.08;;;12.05;;
56455;SDS011;42354;53.218;6.564;2022-08-19T06:19:27;19.48;;;12.10;;
56455;SDS011;42354;53.218;6.564;2022-08-19T06:24:24;17.08;;;10.90;;
56455;SDS011;42354;53.218;6.564;2022-08-19T06:26:53;15.15;;;10.35;;
56455;SDS011;42354;53.218;6.564;2022-08-19T06:29:21;16.73;;;10.50;;
56455;SDS011;42354;53.218;6.564;2022-08-19T06:31:51;14.27;;;8.73;;
56455;SDS011;42354;53.218;6.564;2022-08-19T06:34:17;14.90;;;10.63;;
56455;SDS011;42354;53.218;6.564;2022-08-19T06:36:46;13.80;;;9.40;;
56455;SDS011;42354;53.218;6.564;2022-08-19T06:39:15;15.75;;;10.48;;
56455;SDS011;42354;53.218;6.564;2022-08-19T06:41:44;15.85;;;10.10;;
56455;SDS011;42354;53.218;6.564;2022-08-19T06:44:11;15.77;;;9.88;;
56455;SDS011;42354;53.218;6.564;2022-08-19T06:46:38;15.20;;;8.88;;
56455;SDS011;42354;53.218;6.564;2022-08-19T06:49:04;11.32;;;8.13;;
56455;SDS011;42354;53.218;6.564;2022-08-19T06:51:31;10.75;;;8.75;;
56455;SDS011;42354;53.218;6.564;2022-08-19T06:53:57;11.48;;;8.63;;
56455;SDS011;42354;53.218;6.564;2022-08-19T06:56:27;13.40;;;8.70;;
56455;SDS011;42354;53.218;6.564;2022-08-19T06:58:59;14.05;;;8.20;;
56455;SDS011;42354;53.218;6.564;2022-08-19T07:01:26;12.15;;;8.43;;
56455;SDS011;42354;53.218;6.564;2022-08-19T07:03:51;12.32;;;7.97;;
56455;SDS011;42354;53.218;6.564;2022-08-19T07:06:17;9.52;;;7.30;;
56455;SDS011;42354;53.218;6.564;2022-08-19T07:08:44;10.63;;;7.43;;
56455;SDS011;42354;53.218;6.564;2022-08-19T07:11:12;12.15;;;8.45;;
56455;SDS011;42354;53.218;6.564;2022-08-19T07:13:39;15.93;;;8.80;;
56455;SDS011;42354;53.218;6.564;2022-08-19T07:16:09;13.10;;;8.02;;
56455;SDS011;42354;53.218;6.564;2022-08-19T07:18:38;15.15;;;9.68;;
56455;SDS011;42354;53.218;6.564;2022-08-19T07:23:35;13.30;;;9.38;;
56455;SDS011;42354;53.218;6.564;2022-08-19T07:26:07;12.80;;;9.05;;
56455;SDS011;42354;53.218;6.564;2022-08-19T07:28:34;14.48;;;9.10;;
56455;SDS011;42354;53.218;6.564;2022-08-19T07:31:04;13.23;;;7.68;;
56455;SDS011;42354;53.218;6.564;2022-08-19T07:33:31;11.10;;;8.05;;
56455;SDS011;42354;53.218;6.564;2022-08-19T07:35:57;12.63;;;9.23;;
56455;SDS011;42354;53.218;6.564;2022-08-19T07:38:23;17.13;;;8.93;;
56455;SDS011;42354;53.218;6.564;2022-08-19T07:40:49;11.20;;;8.60;;
56455;SDS011;42354;53.218;6.564;2022-08-19T07:43:16;12.80;;;9.52;;
56455;SDS011;42354;53.218;6.564;2022-08-19T07:45:42;12.45;;;9.30;;
56455;SDS011;42354;53.218;6.564;2022-08-19T07:48:08;14.32;;;8.85;;
56455;SDS011;42354;53.218;6.564;2022-08-19T07:50:33;13.25;;;9.40;;
56455;SDS011;42354;53.218;6.564;2022-08-19T07:52:58;12.38;;;8.98;;
56455;SDS011;42354;53.218;6.564;2022-08-19T07:55:24;11.57;;;8.93;;
56455;SDS011;42354;53.218;6.564;2022-08-19T07:57:50;9.93;;;7.95;;
56455;SDS011;42354;53.218;6.564;2022-08-19T08:00:17;12.63;;;8.05;;
56455;SDS011;42354;53.218;6.564;2022-08-19T08:02:43;10.55;;;8.35;;
56455;SDS011;42354;53.218;6.564;2022-08-19T08:05:09;13.68;;;9.27;;
56455;SDS011;42354;53.218;6.564;2022-08-19T08:07:54;11.38;;;8.80;;
56455;SDS011;42354;53.218;6.564;2022-08-19T08:10:38;12.30;;;9.52;;
56455;SDS011;42354;53.218;6.564;2022-08-19T08:13:04;12.95;;;8.77;;
56455;SDS011;42354;53.218;6.564;2022-08-19T08:15:30;11.40;;;9.48;;
56455;SDS011;42354;53.218;6.564;2022-08-19T08:17:56;13.35;;;9.27;;
56455;SDS011;42354;53.218;6.564;2022-08-19T08:20:22;15.88;;;9.95;;
56455;SDS011;42354;53.218;6.564;2022-08-19T08:22:49;10.68;;;9.05;;
56455;SDS011;42354;53.218;6.564;2022-08-19T08:25:33;14.68;;;10.05;;
56455;SDS011;42354;53.218;6.564;2022-08-19T08:28:00;14.70;;;8.30;;
56455;SDS011;42354;53.218;6.564;2022-08-19T08:30:26;11.90;;;7.68;;
56455;SDS011;42354;53.218;6.564;2022-08-19T08:32:54;12.65;;;10.23;;
56455;SDS011;42354;53.218;6.564;2022-08-19T08:35:20;10.90;;;9.02;;
56455;SDS011;42354;53.218;6.564;2022-08-19T08:37:48;11.63;;;8.73;;
56455;SDS011;42354;53.218;6.564;2022-08-19T08:40:18;15.30;;;9.90;;
56455;SDS011;42354;53.218;6.564;2022-08-19T08:42:46;14.45;;;10.85;;
56455;SDS011;42354;53.218;6.564;2022-08-19T08:45:18;12.40;;;9.88;;
56455;SDS011;42354;53.218;6.564;2022-08-19T08:47:47;16.38;;;11.38;;
56455;SDS011;42354;53.218;6.564;2022-08-19T08:50:18;15.02;;;12.13;;
56455;SDS011;42354;53.218;6.564;2022-08-19T08:52:50;16.45;;;13.32;;
56455;SDS011;42354;53.218;6.564;2022-08-19T08:55:22;15.02;;;12.45;;
56455;SDS011;42354;53.218;6.564;2022-08-19T09:02:51;16.50;;;13.50;;
56455;SDS011;42354;53.218;6.564;2022-08-19T09:05:18;20.13;;;12.52;;
56455;SDS011;42354;53.218;6.564;2022-08-19T09:08:07;14.60;;;12.60;;
56455;SDS011;42354;53.218;6.564;2022-08-19T09:10:39;18.88;;;13.75;;
56455;SDS011;42354;53.218;6.564;2022-08-19T09:16:29;16.98;;;12.68;;
56455;SDS011;42354;53.218;6.564;2022-08-19T09:18:56;14.13;;;10.57;;
56455;SDS011;42354;53.218;6.564;2022-08-19T09:21:25;14.18;;;10.95;;
56455;SDS011;42354;53.218;6.564;2022-08-19T09:23:52;12.60;;;10.38;;
56455;SDS011;42354;53.218;6.564;2022-08-19T09:26:19;13.05;;;10.70;;
56455;SDS011;42354;53.218;6.564;2022-08-19T09:28:46;13.13;;;10.65;;
56455;SDS011;42354;53.218;6.564;2022-08-19T09:31:15;14.18;;;9.50;;
56455;SDS011;42354;53.218;6.564;2022-08-19T09:33:44;14.95;;;10.10;;
56455;SDS011;42354;53.218;6.564;2022-08-19T09:36:11;11.13;;;9.00;;
56455;SDS011;42354;53.218;6.564;2022-08-19T09:38:39;15.70;;;10.25;;
56455;SDS011;42354;53.218;6.564;2022-08-19T09:41:07;14.55;;;9.43;;
56455;SDS011;42354;53.218;6.564;2022-08-19T09:43:35;13.13;;;10.75;;
56455;SDS011;42354;53.218;6.564;2022-08-19T09:46:04;11.82;;;9.10;;
56455;SDS011;42354;53.218;6.564;2022-08-19T09:48:31;11.48;;;8.15;;
56455;SDS011;42354;53.218;6.564;2022-08-19T09:51:12;10.63;;;9.57;;
56455;SDS011;42354;53.218;6.564;2022-08-19T09:53:40;14.13;;;12.63;;
56455;SDS011;42354;53.218;6.564;2022-08-19T09:56:07;13.18;;;10.25;;
56455;SDS011;42354;53.218;6.564;2022-08-19T09:58:33;13.82;;;12.05;;
56455;SDS011;42354;53.218;6.564;2022-08-19T10:01:00;14.65;;;11.45;;
56455;SDS011;42354;53.218;6.564;2022-08-19T10:03:28;13.82;;;10.70;;
56455;SDS011;42354;53.218;6.564;2022-08-19T10:05:55;16.15;;;10.32;;
56455;SDS011;42354;53.218;6.564;2022-08-19T10:08:22;16.50;;;13.02;;
56455;SDS011;42354;53.218;6.564;2022-08-19T10:10:54;12.65;;;9.68;;
56455;SDS011;42354;53.218;6.564;2022-08-19T10:13:21;15.85;;;11.55;;
56455;SDS011;42354;53.218;6.564;2022-08-19T10:15:50;13.07;;;10.93;;
56455;SDS011;42354;53.218;6.564;2022-08-19T10:18:23;18.05;;;11.52;;
56455;SDS011;42354;53.218;6.564;2022-08-19T10:20:50;16.08;;;13.00;;
56455;SDS011;42354;53.218;6.564;2022-08-19T10:23:20;15.82;;;11.32;;
56455;SDS011;42354;53.218;6.564;2022-08-19T10:25:46;15.00;;;11.50;;
56455;SDS011;42354;53.218;6.564;2022-08-19T10:28:11;15.98;;;13.02;;
56455;SDS011;42354;53.218;6.564;2022-08-19T10:30:39;11.82;;;10.43;;
56455;SDS011;42354;53.218;6.564;2022-08-19T10:33:06;14.27;;;12.50;;
56455;SDS011;42354;53.218;6.564;2022-08-19T10:35:32;17.10;;;11.32;;
56455;SDS011;42354;53.218;6.564;2022-08-19T10:37:59;14.90;;;13.07;;
56455;SDS011;42354;53.218;6.564;2022-08-19T10:40:26;17.58;;;14.38;;
56455;SDS011;42354;53.218;6.564;2022-08-19T10:42:52;17.85;;;13.30;;
56455;SDS011;42354;53.218;6.564;2022-08-19T10:45:18;17.02;;;12.93;;
56455;SDS011;42354;53.218;6.564;2022-08-19T10:47:47;14.25;;;12.75;;
56455;SDS011;42354;53.218;6.564;2022-08-19T10:50:13;15.50;;;12.38;;
56455;SDS011;42354;53.218;6.564;2022-08-19T10:52:57;20.52;;;14.52;;
56455;SDS011;42354;53.218;6.564;2022-08-19T10:55:24;14.38;;;12.23;;
56455;SDS011;42354;53.218;6.564;2022-08-19T10:58:18;17.48;;;15.60;;
56455;SDS011;42354;53.218;6.564;2022-08-19T11:00:57;15.45;;;12.27;;
56455;SDS011;42354;53.218;6.564;2022-08-19T11:03:25;15.43;;;12.65;;
56455;SDS011;42354;53.218;6.564;2022-08-19T11:06:02;16.00;;;13.57;;
56455;SDS011;42354;53.218;6.564;2022-08-19T11:08:29;12.43;;;10.90;;
56455;SDS011;42354;53.218;6.564;2022-08-19T11:10:57;14.30;;;12.80;;
56455;SDS011;42354;53.218;6.564;2022-08-19T11:13:25;15.13;;;13.32;;
56455;SDS011;42354;53.218;6.564;2022-08-19T11:15:58;14.45;;;11.38;;
56455;SDS011;42354;53.218;6.564;2022-08-19T11:18:31;16.77;;;12.75;;
56455;SDS011;42354;53.218;6.564;2022-08-19T11:21:04;14.30;;;10.52;;
56455;SDS011;42354;53.218;6.564;2022-08-19T11:23:38;13.48;;;11.55;;
56455;SDS011;42354;53.218;6.564;2022-08-19T11:26:04;13.57;;;11.50;;
56455;SDS011;42354;53.218;6.564;2022-08-19T11:28:30;15.05;;;11.52;;
56455;SDS011;42354;53.218;6.564;2022-08-19T11:30:55;13.30;;;11.68;;
56455;SDS011;42354;53.218;6.564;2022-08-19T11:33:20;14.70;;;13.18;;
56455;SDS011;42354;53.218;6.564;2022-08-19T11:35:46;13.73;;;11.80;;
56455;SDS011;42354;53.218;6.564;2022-08-19T11:38:11;13.07;;;11.05;;
56455;SDS011;42354;53.218;6.564;2022-08-19T11:40:37;19.52;;;15.15;;
56455;SDS011;42354;53.218;6.564;2022-08-19T11:43:02;15.27;;;13.32;;
56455;SDS011;42354;53.218;6.564;2022-08-19T11:45:28;12.38;;;11.07;;
56455;SDS011;42354;53.218;6.564;2022-08-19T11:47:54;12.10;;;9.95;;
56455;SDS011;42354;53.218;6.564;2022-08-19T11:50:20;12.60;;;11.02;;
56455;SDS011;42354;53.218;6.564;2022-08-19T11:52:46;14.52;;;11.80;;
56455;SDS011;42354;53.218;6.564;2022-08-19T11:55:12;14.35;;;12.85;;
56455;SDS011;42354;53.218;6.564;2022-08-19T11:57:38;17.27;;;11.73;;
56455;SDS011;42354;53.218;6.564;2022-08-19T12:00:06;15.48;;;13.88;;
56455;SDS011;42354;53.218;6.564;2022-08-19T12:02:32;15.10;;;12.90;;
56455;SDS011;42354;53.218;6.564;2022-08-19T12:04:58;17.15;;;13.45;;
56455;SDS011;42354;53.218;6.564;2022-08-19T12:07:27;18.63;;;13.65;;
56455;SDS011;42354;53.218;6.564;2022-08-19T12:09:52;17.73;;;13.15;;
56455;SDS011;42354;53.218;6.564;2022-08-19T12:12:17;15.15;;;10.35;;
56455;SDS011;42354;53.218;6.564;2022-08-19T12:14:43;16.52;;;11.45;;
56455;SDS011;42354;53.218;6.564;2022-08-19T12:17:08;12.43;;;10.80;;
56455;SDS011;42354;53.218;6.564;2022-08-19T12:19:35;14.70;;;11.40;;
56455;SDS011;42354;53.218;6.564;2022-08-19T12:22:01;13.10;;;10.45;;
56455;SDS011;42354;53.218;6.564;2022-08-19T12:24:29;13.60;;;11.27;;
56455;SDS011;42354;53.218;6.564;2022-08-19T12:26:56;12.60;;;10.60;;
56455;SDS011;42354;53.218;6.564;2022-08-19T12:29:23;12.68;;;11.05;;
56455;SDS011;42354;53.218;6.564;2022-08-19T12:31:53;14.40;;;12.50;;
56455;SDS011;42354;53.218;6.564;2022-08-19T12:34:19;14.18;;;11.93;;
56455;SDS011;42354;53.218;6.564;2022-08-19T12:36:45;15.15;;;11.73;;
56455;SDS011;42354;53.218;6.564;2022-08-19T12:39:10;12.98;;;9.77;;
56455;SDS011;42354;53.218;6.564;2022-08-19T12:41:36;14.70;;;11.07;;
56455;SDS011;42354;53.218;6.564;2022-08-19T12:44:03;15.52;;;12.30;;
56455;SDS011;42354;53.218;6.564;2022-08-19T12:46:28;13.20;;;11.43;;
56455;SDS011;42354;53.218;6.564;2022-08-19T12:48:56;16.58;;;11.40;;
56455;SDS011;42354;53.218;6.564;2022-08-19T12:51:22;11.95;;;10.32;;
56455;SDS011;42354;53.218;6.564;2022-08-19T12:53:48;10.98;;;9.43;;
56455;SDS011;42354;53.218;6.564;2022-08-19T12:56:14;10.55;;;9.27;;
56455;SDS011;42354;53.218;6.564;2022-08-19T12:58:40;10.60;;;8.63;;
56455;SDS011;42354;53.218;6.564;2022-08-19T13:01:12;13.80;;;11.13;;
56455;SDS011;42354;53.218;6.564;2022-08-19T13:03:39;13.75;;;11.63;;
56455;SDS011;42354;53.218;6.564;2022-08-19T13:06:05;13.40;;;10.57;;
56455;SDS011;42354;53.218;6.564;2022-08-19T13:08:32;14.73;;;11.32;;
56455;SDS011;42354;53.218;6.564;2022-08-19T13:10:57;17.60;;;13.90;;
56455;SDS011;42354;53.218;6.564;2022-08-19T13:13:32;17.30;;;12.95;;
56455;SDS011;42354;53.218;6.564;2022-08-19T13:15:59;16.27;;;12.52;;
56455;SDS011;42354;53.218;6.564;2022-08-19T13:18:29;15.18;;;11.57;;
56455;SDS011;42354;53.218;6.564;2022-08-19T13:20:54;16.95;;;12.18;;
56455;SDS011;42354;53.218;6.564;2022-08-19T13:23:21;19.67;;;14.52;;
56455;SDS011;42354;53.218;6.564;2022-08-19T13:25:55;17.42;;;12.05;;
56455;SDS011;42354;53.218;6.564;2022-08-19T13:28:24;19.73;;;14.52;;
56455;SDS011;42354;53.218;6.564;2022-08-19T13:30:49;23.65;;;17.77;;
56455;SDS011;42354;53.218;6.564;2022-08-19T13:33:33;21.38;;;15.23;;
56455;SDS011;42354;53.218;6.564;2022-08-19T13:36:00;21.70;;;17.08;;
56455;SDS011;42354;53.218;6.564;2022-08-19T13:38:27;18.35;;;15.55;;
56455;SDS011;42354;53.218;6.564;2022-08-19T13:40:53;19.75;;;13.52;;
56455;SDS011;42354;53.218;6.564;2022-08-19T13:43:20;13.32;;;10.23;;
56455;SDS011;42354;53.218;6.564;2022-08-19T13:45:49;15.30;;;10.15;;
56455;SDS011;42354;53.218;6.564;2022-08-19T13:48:17;15.13;;;9.50;;
56455;SDS011;42354;53.218;6.564;2022-08-19T13:50:44;16.88;;;11.23;;
56455;SDS011;42354;53.218;6.564;2022-08-19T13:53:12;16.60;;;11.73;;
56455;SDS011;42354;53.218;6.564;2022-08-19T13:55:38;16.10;;;11.20;;
56455;SDS011;42354;53.218;6.564;2022-08-19T13:58:05;14.15;;;10.35;;
56455;SDS011;42354;53.218;6.564;2022-08-19T14:00:33;12.50;;;10.00;;
56455;SDS011;42354;53.218;6.564;2022-08-19T14:03:01;11.63;;;10.32;;
56455;SDS011;42354;53.218;6.564;2022-08-19T14:05:27;13.05;;;10.18;;
56455;SDS011;42354;53.218;6.564;2022-08-19T14:07:54;12.52;;;8.55;;
56455;SDS011;42354;53.218;6.564;2022-08-19T14:10:20;13.20;;;7.65;;
56455;SDS011;42354;53.218;6.564;2022-08-19T14:12:46;12.88;;;7.63;;
56455;SDS011;42354;53.218;6.564;2022-08-19T14:15:12;13.38;;;8.57;;
56455;SDS011;42354;53.218;6.564;2022-08-19T14:17:39;12.00;;;8.27;;
56455;SDS011;42354;53.218;6.564;2022-08-19T14:20:12;17.20;;;10.32;;
56455;SDS011;42354;53.218;6.564;2022-08-19T14:22:39;14.38;;;11.13;;
56455;SDS011;42354;53.218;6.564;2022-08-19T14:25:06;15.07;;;11.73;;
56455;SDS011;42354;53.218;6.564;2022-08-19T14:27:34;19.40;;;12.88;;
56455;SDS011;42354;53.218;6.564;2022-08-19T14:30:01;21.95;;;16.35;;
56455;SDS011;42354;53.218;6.564;2022-08-19T14:32:27;17.92;;;13.25;;
56455;SDS011;42354;53.218;6.564;2022-08-19T14:34:53;20.73;;;14.75;;
56455;SDS011;42354;53.218;6.564;2022-08-19T14:37:19;18.38;;;12.90;;
56455;SDS011;42354;53.218;6.564;2022-08-19T14:39:45;19.25;;;13.75;;
56455;SDS011;42354;53.218;6.564;2022-08-19T14:42:11;20.73;;;13.82;;